createdAt,value
2018-04-26T00:00:27.985Z,1.00
2018-04-26T00:02:54.586Z,1.35
2018-04-26T00:05:21.371Z,1.45
2018-04-26T00:07:47.884Z,1.75
2018-04-26T00:10:14.485Z,2.05
2018-04-26T00:12:41.090Z,1.05
2018-04-26T00:15:07.736Z,1.55
2018-04-26T00:17:34.324Z,1.60
2018-04-26T00:20:00.916Z,1.20
2018-04-26T00:22:27.496Z,2.00
2018-04-26T00:24:54.098Z,1.60
2018-04-26T00:27:20.694Z,2.25
2018-04-26T00:29:47.352Z,1.75
2018-04-26T00:32:14.006Z,1.67
2018-04-26T00:34:40.628Z,1.37
2018-04-26T00:37:07.217Z,1.67
2018-04-26T00:39:33.809Z,1.23
2018-04-26T00:42:00.388Z,1.10
2018-04-26T00:44:26.992Z,1.30
2018-04-26T00:46:54.242Z,2.10
2018-04-26T00:49:20.836Z,1.30
2018-04-26T00:51:53.533Z,2.28
2018-04-26T00:54:20.755Z,1.52
2018-04-26T00:56:47.340Z,2.35
2018-04-26T00:59:13.924Z,1.10
2018-04-26T01:01:40.611Z,1.75
2018-04-26T01:04:07.218Z,1.80
2018-04-26T01:06:33.814Z,1.90
2018-04-26T01:09:00.402Z,1.58
2018-04-26T01:11:27.002Z,1.77
2018-04-26T01:13:53.599Z,1.70
2018-04-26T01:16:20.188Z,1.15
2018-04-26T01:18:47.441Z,1.60
2018-04-26T01:21:14.034Z,1.55
2018-04-26T01:23:40.634Z,1.17
2018-04-26T01:26:07.216Z,1.20
2018-04-26T01:28:33.810Z,2.25
2018-04-26T01:31:00.420Z,1.20
2018-04-26T01:33:27.010Z,1.42
2018-04-26T01:35:53.708Z,1.20
2018-04-26T01:38:20.289Z,0.90
2018-04-26T01:40:46.993Z,1.60
2018-04-26T01:43:13.585Z,1.62
2018-04-26T01:45:40.170Z,1.50
2018-04-26T01:48:06.803Z,1.40
2018-04-26T01:50:33.399Z,1.55
2018-04-26T01:52:59.996Z,1.27
2018-04-26T01:55:27.526Z,2.37
2018-04-26T01:57:54.170Z,1.00
2018-04-26T02:00:20.805Z,2.10
2018-04-26T02:02:47.406Z,1.60
2018-04-26T02:05:14.006Z,1.20
2018-04-26T02:07:40.596Z,1.80
2018-04-26T02:10:07.201Z,1.10
2018-04-26T02:12:33.794Z,1.67
2018-04-26T02:15:00.407Z,1.37
2018-04-26T02:17:26.996Z,1.58
2018-04-26T02:19:53.599Z,1.23
2018-04-26T02:22:20.204Z,1.42
2018-04-26T02:24:46.798Z,2.25
2018-04-26T02:27:13.485Z,1.08
2018-04-26T02:29:40.131Z,1.48
2018-04-26T02:32:06.767Z,1.67
2018-04-26T02:34:33.353Z,1.30
2018-04-26T02:36:59.940Z,1.10
2018-04-26T02:39:26.538Z,1.00
2018-04-26T02:41:53.143Z,1.77
2018-04-26T02:44:19.840Z,1.67
2018-04-26T02:46:46.430Z,1.77
2018-04-26T02:49:13.034Z,1.08
2018-04-26T02:51:39.671Z,1.25
2018-04-26T02:54:06.259Z,1.50
2018-04-26T02:56:32.934Z,1.12
2018-04-26T02:58:59.540Z,1.80
2018-04-26T03:01:26.116Z,1.00
2018-04-26T03:03:53.705Z,0.90
2018-04-26T03:06:20.306Z,1.95
2018-04-26T03:08:46.910Z,1.17
2018-04-26T03:11:13.518Z,1.60
2018-04-26T03:13:40.206Z,1.05
2018-04-26T03:16:06.798Z,1.50
2018-04-26T03:18:33.468Z,1.48
2018-04-26T03:21:00.100Z,0.88
2018-04-26T03:23:26.687Z,1.25
2018-04-26T03:25:54.640Z,1.00
2018-04-26T03:28:22.267Z,1.00
2018-04-26T03:30:49.338Z,1.20
2018-04-26T03:33:15.916Z,1.10
2018-04-26T03:35:42.518Z,1.37
2018-04-26T03:38:09.288Z,1.15
2018-04-26T03:40:35.890Z,1.50
2018-04-26T03:43:02.504Z,1.30
2018-04-26T03:45:29.093Z,1.30
2018-04-26T03:47:55.691Z,0.82
2018-04-26T03:50:22.272Z,1.23
2018-04-26T03:52:48.866Z,1.60
2018-04-26T03:55:15.456Z,1.77
2018-04-26T03:57:42.118Z,3.58
2018-04-26T04:00:14.698Z,1.10
2018-04-26T04:02:47.134Z,1.23
2018-04-26T04:05:16.332Z,1.05
2018-04-26T04:07:42.923Z,1.42
2018-04-26T04:10:09.534Z,1.10
2018-04-26T04:12:36.501Z,1.42
2018-04-26T04:15:03.087Z,1.12
2018-04-26T04:17:29.675Z,1.20
2018-04-26T04:19:56.265Z,0.85
2018-04-26T04:22:22.865Z,1.30
2018-04-26T04:24:50.115Z,1.05
2018-04-26T04:27:16.874Z,1.08
2018-04-26T04:29:43.462Z,1.05
2018-04-26T04:32:10.049Z,1.00
2018-04-26T04:34:37.444Z,1.37
2018-04-26T04:37:04.042Z,0.90
2018-04-26T04:39:30.657Z,0.90
2018-04-26T04:41:57.734Z,1.20
2018-04-26T04:44:24.327Z,1.40
2018-04-26T04:46:51.024Z,0.80
2018-04-26T04:49:18.064Z,1.45
2018-04-26T04:51:44.658Z,1.00
2018-04-26T04:54:11.259Z,0.98
2018-04-26T04:56:37.854Z,0.90
2018-04-26T04:59:04.464Z,1.20
2018-04-26T05:01:31.045Z,1.10
2018-04-26T05:03:57.675Z,1.60
2018-04-26T05:06:24.326Z,1.40
2018-04-26T05:08:50.933Z,0.80
2018-04-26T05:11:18.273Z,1.40
2018-04-26T05:13:44.947Z,0.80
2018-04-26T05:16:11.566Z,0.98
2018-04-26T05:18:38.162Z,1.60
2018-04-26T05:21:04.752Z,0.93
2018-04-26T05:23:31.588Z,1.83
2018-04-26T05:25:58.458Z,1.20
2018-04-26T05:28:25.078Z,1.23
2018-04-26T05:30:51.669Z,1.00
2018-04-26T05:33:18.260Z,1.17
2018-04-26T05:35:44.860Z,0.90
2018-04-26T05:38:11.515Z,1.42
2018-04-26T05:40:38.211Z,1.37
2018-04-26T05:43:05.059Z,1.00
2018-04-26T05:45:31.658Z,1.02
2018-04-26T05:47:58.445Z,0.85
2018-04-26T05:50:25.302Z,1.65
2018-04-26T05:52:52.034Z,1.70
2018-04-26T05:55:18.868Z,1.25
2018-04-26T05:57:45.599Z,2.05
2018-04-26T06:00:12.185Z,1.55
2018-04-26T06:02:38.818Z,1.37
2018-04-26T06:05:05.477Z,1.10
2018-04-26T06:07:32.075Z,1.42
2018-04-26T06:09:58.692Z,1.30
2018-04-26T06:12:26.110Z,1.58
2018-04-26T06:14:52.722Z,0.95
2018-04-26T06:17:19.318Z,1.70
2018-04-26T06:19:45.904Z,1.70
2018-04-26T06:22:13.079Z,1.75
2018-04-26T06:24:39.687Z,1.37
2018-04-26T06:27:07.042Z,1.10
2018-04-26T06:29:33.647Z,0.95
2018-04-26T06:32:00.244Z,1.48
2018-04-26T06:34:26.936Z,1.40
2018-04-26T06:36:53.575Z,1.33
2018-04-26T06:39:20.154Z,0.80
2018-04-26T06:41:46.828Z,1.10
2018-04-26T06:44:13.464Z,1.08
2018-04-26T06:46:40.053Z,1.17
2018-04-26T06:49:06.650Z,1.23
2018-04-26T06:51:33.254Z,1.30
2018-04-26T06:53:59.854Z,1.00
2018-04-26T06:56:26.544Z,1.25
2018-04-26T06:58:53.132Z,1.62
2018-04-26T07:01:19.728Z,1.52
2018-04-26T07:03:46.363Z,1.30
2018-04-26T07:06:12.973Z,1.30
2018-04-26T07:08:39.560Z,1.62
2018-04-26T07:11:06.168Z,1.42
2018-04-26T07:13:32.744Z,1.30
2018-04-26T07:15:59.329Z,1.85
2018-04-26T07:18:25.968Z,2.90
2018-04-26T07:20:52.555Z,2.10
2018-04-26T07:23:19.145Z,1.65
2018-04-26T07:25:45.750Z,1.42
2018-04-26T07:28:12.356Z,1.12
2018-04-26T07:30:38.955Z,1.08
2018-04-26T07:33:05.586Z,1.73
2018-04-26T07:35:32.235Z,1.30
2018-04-26T07:37:58.833Z,1.65
2018-04-26T07:40:25.445Z,1.90
2018-04-26T07:42:52.032Z,1.75
2018-04-26T07:45:18.696Z,1.05
2018-04-26T07:47:45.215Z,1.70
2018-04-26T07:50:11.814Z,1.25
2018-04-26T07:52:38.404Z,1.90
2018-04-26T07:55:05.002Z,1.60
2018-04-26T07:57:31.592Z,2.47
2018-04-26T07:59:58.187Z,1.02
2018-04-26T08:02:24.812Z,1.12
2018-04-26T08:04:51.396Z,1.98
2018-04-26T08:07:18.003Z,2.28
2018-04-26T08:09:44.598Z,1.80
2018-04-26T08:12:11.184Z,2.30
2018-04-26T08:14:37.776Z,1.37
2018-04-26T08:17:04.364Z,1.33
2018-04-26T08:19:30.952Z,3.08
2018-04-26T08:21:58.404Z,2.00
2018-04-26T08:24:24.989Z,2.17
2018-04-26T08:26:51.584Z,1.67
2018-04-26T08:29:18.226Z,2.10
2018-04-26T08:31:44.812Z,1.75
2018-04-26T08:34:11.924Z,1.62
2018-04-26T08:36:38.520Z,1.20
2018-04-26T08:39:05.101Z,1.10
2018-04-26T08:41:31.826Z,1.65
2018-04-26T08:43:58.426Z,0.95
2018-04-26T08:46:25.714Z,2.25
2018-04-26T08:48:52.724Z,1.90
2018-04-26T08:51:19.326Z,1.00
2018-04-26T08:53:45.942Z,2.15
2018-04-26T08:56:12.563Z,1.50
2018-04-26T08:58:39.154Z,1.20
2018-04-26T09:01:05.748Z,1.20
2018-04-26T09:03:33.063Z,1.52
2018-04-26T09:05:59.646Z,1.60
2018-04-26T09:08:26.766Z,1.60
2018-04-26T09:10:54.090Z,3.37
2018-04-26T09:13:20.679Z,1.90
2018-04-26T09:15:47.285Z,2.30
2018-04-26T09:18:13.864Z,2.20
2018-04-26T09:20:40.453Z,2.55
2018-04-26T09:23:07.049Z,2.25
2018-04-26T09:25:33.637Z,2.65
2018-04-26T09:28:00.232Z,2.35
2018-04-26T09:30:26.814Z,1.85
2018-04-26T09:32:54.181Z,1.85
2018-04-26T09:35:20.772Z,1.95
2018-04-26T09:37:47.365Z,2.87
2018-04-26T09:40:13.971Z,1.45
2018-04-26T09:42:40.549Z,1.75
2018-04-26T09:45:07.146Z,1.85
2018-04-26T09:47:33.762Z,3.03
2018-04-26T09:50:00.364Z,2.05
2018-04-26T09:52:27.058Z,2.20
2018-04-26T09:54:53.641Z,1.80
2018-04-26T09:57:20.372Z,1.73
2018-04-26T09:59:46.948Z,1.87
2018-04-26T10:02:13.539Z,2.03
2018-04-26T10:04:46.039Z,2.10
2018-04-26T10:07:12.624Z,2.05
2018-04-26T10:09:39.214Z,1.50
2018-04-26T10:12:05.796Z,1.80
2018-04-26T10:14:32.386Z,1.20
2018-04-26T10:16:59.020Z,1.62
2018-04-26T10:19:25.652Z,1.70
2018-04-26T10:21:52.303Z,2.03
2018-04-26T10:24:18.908Z,1.92
2018-04-26T10:26:45.500Z,2.08
2018-04-26T10:29:12.103Z,1.98
2018-04-26T10:31:38.688Z,1.73
2018-04-26T10:34:05.276Z,1.37
2018-04-26T10:36:31.884Z,1.20
2018-04-26T10:38:58.592Z,2.37
2018-04-26T10:41:25.193Z,1.10
2018-04-26T10:43:51.798Z,1.45
2018-04-26T10:46:18.388Z,2.10
2018-04-26T10:48:44.999Z,1.83
2018-04-26T10:51:11.599Z,1.35
2018-04-26T10:53:38.195Z,1.75
2018-04-26T10:56:04.794Z,1.77
2018-04-26T10:58:31.384Z,1.70
2018-04-26T11:00:58.612Z,1.67
2018-04-26T11:03:25.200Z,2.12
2018-04-26T11:05:51.818Z,1.90
2018-04-26T11:08:19.036Z,2.85
2018-04-26T11:10:45.620Z,2.00
2018-04-26T11:13:12.307Z,1.87
2018-04-26T11:15:39.600Z,1.65
2018-04-26T11:18:06.171Z,1.98
2018-04-26T11:20:32.894Z,1.60
2018-04-26T11:22:59.494Z,1.48
2018-04-26T11:25:26.092Z,2.15
2018-04-26T11:27:52.694Z,1.70
2018-04-26T11:30:19.287Z,1.50
2018-04-26T11:32:45.887Z,2.08
2018-04-26T11:35:12.486Z,1.87
2018-04-26T11:37:39.164Z,1.40
2018-04-26T11:40:05.786Z,1.90
2018-04-26T11:42:33.104Z,1.70
2018-04-26T11:44:59.725Z,3.08
2018-04-26T11:47:26.308Z,1.40
2018-04-26T11:49:52.893Z,1.83
2018-04-26T11:52:19.503Z,1.42
2018-04-26T11:54:46.102Z,1.20
2018-04-26T11:57:12.704Z,1.37
2018-04-26T11:59:39.315Z,2.10
2018-04-26T12:02:05.926Z,1.98
2018-04-26T12:04:32.526Z,1.42
2018-04-26T12:06:59.108Z,1.65
2018-04-26T12:09:25.702Z,1.45
2018-04-26T12:11:52.307Z,1.35
2018-04-26T12:14:18.897Z,1.85
2018-04-26T12:16:45.500Z,3.25
2018-04-26T12:19:12.193Z,1.92
2018-04-26T12:21:38.776Z,1.62
2018-04-26T12:24:05.482Z,1.83
2018-04-26T12:26:32.007Z,1.20
2018-04-26T12:28:58.592Z,1.60
2018-04-26T12:31:25.186Z,1.77
2018-04-26T12:33:51.777Z,1.70
2018-04-26T12:36:18.462Z,1.87
2018-04-26T12:38:45.045Z,1.67
2018-04-26T12:41:11.647Z,1.60
2018-04-26T12:43:38.270Z,2.30
2018-04-26T12:46:04.878Z,1.70
2018-04-26T12:48:31.469Z,1.58
2018-04-26T12:50:58.061Z,1.85
2018-04-26T12:53:24.702Z,1.30
2018-04-26T12:55:51.301Z,1.30
2018-04-26T12:58:18.073Z,1.33
2018-04-26T13:00:44.670Z,2.20
2018-04-26T13:03:11.361Z,1.35
2018-04-26T13:05:37.969Z,1.65
2018-04-26T13:08:04.622Z,1.35
2018-04-26T13:10:31.147Z,1.70
2018-04-26T13:12:57.746Z,2.28
2018-04-26T13:15:24.354Z,1.50
2018-04-26T13:17:50.941Z,2.75
2018-04-26T13:20:17.533Z,1.40
2018-04-26T13:22:44.130Z,1.40
2018-04-26T13:25:10.717Z,1.37
2018-04-26T13:27:37.666Z,1.17
2018-04-26T13:30:04.270Z,1.67
2018-04-26T13:32:30.857Z,1.23
2018-04-26T13:34:58.136Z,1.08
2018-04-26T13:37:24.739Z,1.35
2018-04-26T13:39:51.354Z,1.60
2018-04-26T13:42:17.945Z,1.45
2018-04-26T13:44:44.554Z,1.60
2018-04-26T13:47:11.459Z,2.15
2018-04-26T13:49:38.052Z,1.25
2018-04-26T13:52:04.673Z,1.73
2018-04-26T13:54:31.247Z,1.20
2018-04-26T13:56:57.844Z,1.12
2018-04-26T13:59:24.436Z,1.40
2018-04-26T14:01:51.761Z,1.37
2018-04-26T14:04:18.370Z,2.65
2018-04-26T14:06:44.961Z,1.52
2018-04-26T14:09:11.563Z,1.25
2018-04-26T14:11:38.163Z,2.85
2018-04-26T14:14:06.613Z,1.17
2018-04-26T14:16:33.222Z,1.92
2018-04-26T14:18:59.823Z,1.83
2018-04-26T14:21:26.927Z,1.50
2018-04-26T14:23:53.642Z,1.80
2018-04-26T14:26:20.268Z,1.62
2018-04-26T14:28:46.867Z,1.23
2018-04-26T14:31:14.354Z,1.60
2018-04-26T14:33:40.948Z,1.00
2018-04-26T14:36:07.640Z,2.22
2018-04-26T14:38:34.268Z,1.83
2018-04-26T14:41:01.004Z,1.77
2018-04-26T14:43:27.694Z,1.52
2018-04-26T14:45:54.212Z,1.30
2018-04-26T14:48:20.794Z,1.50
2018-04-26T14:50:47.388Z,1.20
2018-04-26T14:53:13.976Z,1.90
2018-04-26T14:55:40.564Z,1.45
2018-04-26T14:58:07.450Z,1.80
2018-04-26T15:00:34.055Z,1.35
2018-04-26T15:03:00.655Z,1.55
2018-04-26T15:05:27.305Z,1.45
2018-04-26T15:07:53.835Z,1.80
2018-04-26T15:10:20.436Z,1.60
2018-04-26T15:12:47.029Z,2.05
2018-04-26T15:15:13.615Z,1.58
2018-04-26T15:17:40.219Z,1.85
2018-04-26T15:20:06.822Z,2.15
2018-04-26T15:22:33.416Z,1.40
2018-04-26T15:25:00.005Z,1.10
2018-04-26T15:27:26.610Z,1.35
2018-04-26T15:29:53.202Z,1.83
2018-04-26T15:32:19.784Z,1.52
2018-04-26T15:34:47.654Z,1.30
2018-04-26T15:37:14.251Z,1.23
2018-04-26T15:39:40.836Z,1.48
2018-04-26T15:42:07.428Z,1.58
2018-04-26T15:44:34.026Z,1.60
2018-04-26T15:47:00.627Z,1.87
2018-04-26T15:49:27.232Z,1.80
2018-04-26T15:51:53.842Z,1.33
2018-04-26T15:54:26.316Z,1.10
2018-04-26T15:56:58.879Z,1.73
2018-04-26T15:59:31.498Z,0.80
2018-04-26T16:02:18.708Z,2.45
2018-04-26T16:04:51.098Z,1.33
2018-04-26T16:07:42.279Z,1.10
2018-04-26T16:10:14.772Z,1.20
2018-04-26T16:12:55.131Z,2.25
2018-04-26T16:15:27.600Z,1.67
2018-04-26T16:18:05.969Z,1.35
2018-04-26T16:20:44.609Z,2.75
2018-04-26T16:23:23.667Z,3.40
2018-04-26T16:25:56.177Z,3.28
2018-04-26T16:28:34.476Z,3.25
2018-04-26T16:31:12.746Z,3.95
2018-04-26T16:33:45.040Z,4.15
2018-04-26T16:36:17.639Z,3.53
2018-04-26T16:38:50.294Z,3.95
2018-04-26T16:41:17.363Z,3.80
2018-04-26T16:43:45.110Z,5.68
2018-04-26T16:46:11.747Z,3.30
2018-04-26T16:48:38.382Z,3.75
2018-04-26T16:51:04.968Z,3.50
2018-04-26T16:53:31.576Z,3.62
2018-04-26T16:55:58.743Z,3.45
2018-04-26T16:58:25.340Z,2.60
2018-04-26T17:00:51.927Z,3.03
2018-04-26T17:03:18.578Z,3.70
2018-04-26T17:05:45.793Z,3.00
2018-04-26T17:08:12.332Z,3.42
2018-04-26T17:10:38.927Z,3.37
2018-04-26T17:13:05.594Z,2.78
2018-04-26T17:15:32.303Z,4.22
2018-04-26T17:17:58.887Z,3.10
2018-04-26T17:20:25.497Z,3.92
2018-04-26T17:22:52.099Z,3.92
2018-04-26T17:25:18.707Z,5.60
2018-04-26T17:27:45.361Z,3.20
2018-04-26T17:30:11.961Z,4.18
2018-04-26T17:32:39.380Z,4.90
2018-04-26T17:35:05.969Z,2.50
2018-04-26T17:37:32.559Z,3.10
2018-04-26T17:39:59.160Z,2.37
2018-04-26T17:42:25.842Z,3.00
2018-04-26T17:44:52.433Z,3.65
2018-04-26T17:47:19.664Z,3.03
2018-04-26T17:49:46.263Z,3.40
2018-04-26T17:52:13.759Z,2.72
2018-04-26T17:54:41.981Z,3.55
2018-04-26T17:57:08.999Z,2.58
2018-04-26T17:59:35.622Z,2.37
2018-04-26T18:02:02.727Z,2.47
2018-04-26T18:04:29.341Z,2.12
2018-04-26T18:06:56.021Z,3.25
2018-04-26T18:09:22.589Z,2.58
2018-04-26T18:11:49.192Z,2.42
2018-04-26T18:14:16.599Z,2.33
2018-04-26T18:16:43.184Z,3.28
2018-04-26T18:19:09.794Z,1.87
2018-04-26T18:21:36.429Z,3.50
2018-04-26T18:24:03.134Z,3.12
2018-04-26T18:26:29.740Z,2.10
2018-04-26T18:28:56.325Z,3.08
2018-04-26T18:31:23.939Z,2.90
2018-04-26T18:33:50.528Z,1.77
2018-04-26T18:36:17.116Z,1.75
2018-04-26T18:38:43.718Z,2.33
2018-04-26T18:41:10.305Z,2.90
2018-04-26T18:43:36.914Z,2.08
2018-04-26T18:46:03.527Z,3.08
2018-04-26T18:48:30.104Z,1.83
2018-04-26T18:50:56.713Z,2.65
2018-04-26T18:53:23.356Z,1.95
2018-04-26T18:55:49.948Z,1.52
2018-04-26T18:58:16.671Z,2.92
2018-04-26T19:00:43.265Z,2.15
2018-04-26T19:03:09.920Z,2.78
2018-04-26T19:05:37.047Z,2.83
2018-04-26T19:08:03.663Z,2.80
2018-04-26T19:10:30.342Z,2.40
2018-04-26T19:12:57.470Z,3.40
2018-04-26T19:15:24.650Z,4.50
2018-04-26T19:17:51.366Z,2.35
2018-04-26T19:20:18.294Z,2.87
2018-04-26T19:29:30.391Z,2.53
2018-04-26T19:31:59.582Z,2.80
2018-04-26T19:34:26.187Z,3.08
2018-04-26T19:36:52.771Z,3.33
2018-04-26T19:39:19.461Z,2.17
2018-04-26T19:41:46.114Z,3.25
2018-04-26T19:44:12.714Z,3.17
2018-04-26T19:46:39.328Z,2.03
2018-04-26T19:49:06.022Z,2.95
2018-04-26T19:51:32.622Z,2.75
2018-04-26T19:53:59.292Z,3.10
2018-04-26T19:56:25.892Z,3.20
2018-04-26T19:58:52.489Z,2.97
2018-04-26T20:01:19.076Z,3.35
2018-04-26T20:03:45.750Z,2.25
2018-04-26T20:06:12.348Z,2.75
2018-04-26T20:08:38.962Z,4.20
2018-04-26T20:11:05.559Z,2.75
2018-04-26T20:13:32.153Z,1.58
2018-04-26T20:15:58.745Z,2.40
2018-04-26T20:18:25.371Z,2.33
2018-04-26T20:20:51.936Z,2.30
2018-04-26T20:23:18.536Z,2.60
2018-04-26T20:25:45.171Z,2.28
2018-04-26T20:28:11.818Z,2.75
2018-04-26T20:30:38.353Z,3.45
2018-04-26T20:33:04.960Z,2.33
2018-04-26T20:35:31.554Z,1.65
2018-04-26T20:37:58.144Z,2.22
2018-04-26T20:40:24.747Z,2.92
2018-04-26T20:42:51.988Z,2.72
2018-04-26T20:45:18.591Z,3.15
2018-04-26T20:47:45.199Z,2.12
2018-04-26T20:50:11.796Z,2.30
2018-04-26T20:52:38.399Z,2.87
2018-04-26T20:55:05.980Z,2.20
2018-04-26T20:57:32.579Z,1.95
2018-04-26T20:59:59.175Z,2.12
2018-04-26T21:02:25.890Z,2.20
2018-04-26T21:04:52.514Z,3.45
2018-04-26T21:07:19.157Z,1.85
2018-04-26T21:09:45.809Z,1.60
2018-04-26T21:12:12.470Z,2.28
2018-04-26T21:14:39.151Z,1.77
2018-04-26T21:17:06.286Z,1.33
2018-04-26T21:19:33.564Z,2.95
2018-04-26T21:22:00.228Z,2.35
2018-04-26T21:24:26.890Z,2.85
2018-04-26T21:26:53.541Z,1.98
2018-04-26T21:29:20.220Z,2.08
2018-04-26T21:31:46.867Z,2.58
2018-04-26T21:34:13.507Z,2.62
2018-04-26T21:36:40.165Z,1.75
2018-04-26T21:39:06.821Z,2.03
2018-04-26T21:41:33.476Z,2.30
2018-04-26T21:44:00.119Z,1.80
2018-04-26T21:46:26.768Z,3.30
2018-04-26T21:48:53.409Z,2.17
2018-04-26T21:51:25.806Z,2.87
2018-04-26T21:53:58.200Z,1.83
2018-04-26T21:56:30.770Z,2.40
2018-04-26T21:59:03.674Z,2.00
2018-04-26T22:01:35.978Z,2.60
2018-04-26T22:04:04.441Z,2.28
2018-04-26T22:06:31.103Z,3.22
2018-04-26T22:08:58.609Z,1.73
2018-04-26T22:11:25.250Z,3.30
2018-04-26T22:13:51.904Z,2.00
2018-04-26T22:16:18.554Z,1.55
2018-04-26T22:18:45.212Z,1.87
2018-04-26T22:21:11.862Z,1.80
2018-04-26T22:23:38.503Z,1.35
2018-04-26T22:26:05.139Z,2.00
2018-04-26T22:28:31.786Z,2.28
2018-04-26T22:30:58.423Z,1.67
2018-04-26T22:33:25.635Z,2.75
2018-04-26T22:35:52.314Z,2.28
2018-04-26T22:38:19.033Z,2.55
2018-04-26T22:40:45.692Z,1.55
2018-04-26T22:43:12.356Z,2.53
2018-04-26T22:45:39.648Z,3.28
2018-04-26T22:48:06.296Z,2.50
2018-04-26T22:50:32.956Z,2.22
2018-04-26T22:52:59.605Z,1.92
2018-04-26T22:55:26.242Z,3.22
2018-04-26T22:57:52.900Z,1.77
2018-04-26T23:00:19.546Z,1.55
2018-04-26T23:02:46.182Z,1.90
2018-04-26T23:05:12.856Z,1.95
2018-04-26T23:07:39.512Z,1.70
2018-04-26T23:10:07.125Z,1.70
2018-04-26T23:12:33.761Z,2.00
2018-04-26T23:15:00.413Z,1.70
2018-04-26T23:17:27.057Z,1.95
2018-04-26T23:19:53.694Z,2.50
2018-04-26T23:22:20.336Z,1.58
2018-04-26T23:24:46.997Z,2.17
2018-04-26T23:27:13.643Z,2.15
2018-04-26T23:29:40.305Z,3.30
2018-04-26T23:32:07.068Z,3.47
2018-04-26T23:34:33.718Z,2.40
2018-04-26T23:37:00.355Z,2.90
2018-04-26T23:39:27.028Z,3.28
2018-04-26T23:41:53.669Z,2.60
2018-04-26T23:44:20.325Z,1.60
2018-04-26T23:46:46.983Z,2.03
2018-04-26T23:49:14.053Z,1.77
2018-04-26T23:51:40.709Z,1.50
2018-04-26T23:54:07.354Z,1.42
2018-04-26T23:56:33.995Z,1.85
2018-04-26T23:59:00.653Z,2.15
